GMAD METAR and TAF | Updated Today

GMAD METAR

Al Massira Airport

Observation time: 9 min. ago

GMAD 251930Z 21012KT 8000 NSC 21/15 Q1014 NOSIG

Need help? Read our tutorial on how to read METARs or read the parsed version below.

Al Massira Airport (GMAD) METAR

  • Weather conditions on Wed, 25 May 2022 19:30:00 +0000 (9 min. ago):
  • Present conditions: Dry
  • Clouds: No significant clouds are observed
  • Visibility: 8000 meters
  • Wind: 210 degrees at 12 knots
  • Temperature: 21 celsius
  • Dew point: 15 celsius
  • Pressure: 1014 millibars
  • Remarks: None


Useful to know...

GMAD TAF

Al Massira Airport

TAF GMAD 251700Z 2518/2624 20006KT 8000 NSC TEMPO 2600/2610 BKN016 BECMG 2612/2614 28012KT
Observation time: 2:39 hr. ago
Need help? Read our tutorial on how to read TAFs or read the parsed version below.

Parsed version of TAF for Al Massira Airport (GMAD)

  • From 25 May at 18:00 UTC, to day 26 of the month at 24:00 UTC
  • Clouds: No significant clouds are observed
  • Visibility: 8000 meters
  • Wind: 200 degrees at 6
  • Expected to arise temporarily, from 26 May at 00:00 UTC, to day 26 of the month at 10:00 UTC
  • Clouds: Broken sky at 488 meters
  • Expected to arise soon, from 26 May at 12:00 UTC, to day 26 of the month at 14:00 UTC
  • Wind: 280 degrees at 12

Airports near GMAD